Time;durP1;ratioP1;P1;durP2;ratioP2;P2;SDS_P1;SDS_P2;PMS_P1;PMS_P2;Temp;Humidity;BMP_temperature;BMP_pressure;BME280_temperature;BME280_humidity;BME280_pressure;Samples;Min_cycle;Max_cycle;Signal;HPM_P1;HPM_P2
2024/02/26 00:00:31;;;;;;;4.93;3.80;;;21.20;55.70;;;;;;5053168;28;20167;-69
2024/02/26 00:02:57;;;;;;;6.07;5.07;;;21.20;55.70;;;;;;5052846;28;20198;-69
2024/02/26 00:05:23;;;;;;;6.60;4.33;;;21.20;55.70;;;;;;5052801;28;20175;-69
2024/02/26 00:07:49;;;;;;;6.17;4.30;;;21.20;55.70;;;;;;5053052;28;20179;-70
2024/02/26 00:10:14;;;;;;;5.80;4.70;;;21.20;55.70;;;;;;5053024;28;20282;-70
2024/02/26 00:12:40;;;;;;;5.47;4.17;;;21.20;55.70;;;;;;5053139;28;20520;-69
2024/02/26 00:15:07;;;;;;;5.70;3.80;;;21.20;55.70;;;;;;5052590;28;20205;-70
2024/02/26 00:17:33;;;;;;;7.60;4.53;;;21.20;55.70;;;;;;5050232;28;20525;-70
2024/02/26 00:20:00;;;;;;;8.27;4.10;;;21.20;55.80;;;;;;5052680;28;20401;-70
2024/02/26 00:22:26;;;;;;;7.43;4.70;;;21.20;55.80;;;;;;5052420;28;20190;-69
2024/02/26 00:24:51;;;;;;;6.40;4.20;;;21.20;55.80;;;;;;5052567;28;20872;-70
2024/02/26 00:27:17;;;;;;;7.30;4.43;;;21.20;55.70;;;;;;5052349;28;20584;-69
2024/02/26 00:29:43;;;;;;;4.83;4.00;;;21.20;55.80;;;;;;5052298;28;20741;-69
2024/02/26 00:32:08;;;;;;;5.20;4.57;;;21.20;55.80;;;;;;5052183;28;20205;-70
2024/02/26 00:34:34;;;;;;;4.97;3.90;;;21.20;55.80;;;;;;5052257;28;20202;-69
2024/02/26 00:37:00;;;;;;;7.20;3.90;;;21.20;55.80;;;;;;5052126;28;20167;-70
2024/02/26 00:39:25;;;;;;;6.60;4.47;;;21.20;55.80;;;;;;5052225;28;20179;-69
2024/02/26 00:41:51;;;;;;;5.77;4.13;;;21.20;55.80;;;;;;5051952;28;20174;-70
2024/02/26 00:44:17;;;;;;;5.30;3.53;;;21.20;55.80;;;;;;5052184;28;20182;-70
2024/02/26 00:46:43;;;;;;;4.80;4.23;;;21.20;55.70;;;;;;5052160;28;20410;-70
2024/02/26 00:49:08;;;;;;;6.60;3.77;;;21.20;55.70;;;;;;5051835;28;20449;-70
2024/02/26 00:51:34;;;;;;;6.50;4.00;;;21.20;55.70;;;;;;5052185;28;20179;-69
2024/02/26 00:53:59;;;;;;;4.27;3.63;;;21.20;55.80;;;;;;5051503;28;20763;-70
2024/02/26 00:56:25;;;;;;;4.77;3.60;;;21.20;56.30;;;;;;5052119;28;20171;-69
2024/02/26 00:58:51;;;;;;;5.80;4.30;;;21.10;55.70;;;;;;5051935;28;20670;-69
2024/02/26 01:01:17;;;;;;;3.60;2.93;;;21.20;55.80;;;;;;5052272;28;20178;-69
2024/02/26 01:03:42;;;;;;;8.27;5.23;;;21.10;55.60;;;;;;5052207;28;20190;-70
2024/02/26 01:06:09;;;;;;;5.07;4.57;;;21.20;55.80;;;;;;5050395;28;20441;-70
2024/02/26 01:08:35;;;;;;;5.30;3.87;;;21.20;55.80;;;;;;5052124;28;20175;-69
2024/02/26 01:11:01;;;;;;;4.50;3.83;;;21.10;55.70;;;;;;5034085;28;20842;-70
2024/02/26 01:13:27;;;;;;;6.60;4.10;;;21.10;55.70;;;;;;5051363;28;20432;-70
2024/02/26 01:15:52;;;;;;;5.10;4.60;;;21.20;55.90;;;;;;5050455;28;20682;-69
2024/02/26 01:18:18;;;;;;;6.13;4.20;;;21.10;55.70;;;;;;5051439;28;20446;-70
2024/02/26 01:20:43;;;;;;;5.13;4.00;;;21.10;55.70;;;;;;5050422;28;20175;-70
2024/02/26 01:23:09;;;;;;;4.43;3.70;;;21.10;55.70;;;;;;5051745;28;20190;-70
2024/02/26 01:25:34;;;;;;;8.03;3.87;;;21.10;55.70;;;;;;5051475;28;20179;-69
2024/02/26 01:28:00;;;;;;;5.20;3.57;;;21.10;55.70;;;;;;5051825;28;20179;-69
2024/02/26 01:30:26;;;;;;;4.87;3.63;;;21.10;55.70;;;;;;5055286;28;20181;-70
2024/02/26 01:32:51;;;;;;;5.80;4.73;;;21.10;55.70;;;;;;5055554;28;20258;-69
2024/02/26 01:35:17;;;;;;;6.37;4.00;;;21.10;55.70;;;;;;5055526;28;20716;-70
2024/02/26 01:37:42;;;;;;;5.13;3.50;;;21.10;55.70;;;;;;5056171;28;20175;-69
2024/02/26 01:40:09;;;;;;;4.90;4.27;;;21.10;55.70;;;;;;5056112;28;20175;-69
2024/02/26 01:42:35;;;;;;;5.20;4.00;;;21.10;55.70;;;;;;5055426;28;20195;-69
2024/02/26 01:45:01;;;;;;;5.33;3.10;;;21.10;55.70;;;;;;5055542;28;20935;-68
2024/02/26 01:47:27;;;;;;;5.80;4.30;;;21.10;55.70;;;;;;5054031;28;20418;-70
2024/02/26 01:49:53;;;;;;;5.40;3.60;;;21.10;55.70;;;;;;5054105;28;20175;-69
2024/02/26 01:52:20;;;;;;;4.53;3.33;;;21.10;55.70;;;;;;5055362;28;20975;-70
2024/02/26 01:54:46;;;;;;;4.40;3.83;;;21.10;55.70;;;;;;5054938;28;20456;-69
2024/02/26 01:57:13;;;;;;;5.03;3.60;;;21.10;55.70;;;;;;5055374;28;20774;-69
2024/02/26 01:59:40;;;;;;;4.83;4.00;;;21.10;55.70;;;;;;5055157;28;20488;-70
2024/02/26 02:02:11;;;;;;;5.60;3.93;;;21.10;55.70;;;;;;5055187;28;20432;-70
2024/02/26 02:04:37;;;;;;;8.60;4.00;;;21.10;55.70;;;;;;5055350;28;20837;-70
2024/02/26 02:07:02;;;;;;;4.20;3.70;;;21.10;55.70;;;;;;5055106;28;20416;-70
2024/02/26 02:09:28;;;;;;;4.03;2.87;;;21.10;55.70;;;;;;5055210;28;20429;-70
2024/02/26 02:11:55;;;;;;;4.47;3.20;;;21.10;55.70;;;;;;5054929;28;20171;-70
2024/02/26 02:14:21;;;;;;;4.40;3.80;;;21.10;55.70;;;;;;5055034;28;20459;-70
2024/02/26 02:16:47;;;;;;;5.73;3.60;;;21.10;55.70;;;;;;5054977;28;20413;-70
2024/02/26 02:19:13;;;;;;;3.80;3.40;;;21.10;55.70;;;;;;5054927;28;20186;-70
2024/02/26 02:21:39;;;;;;;4.07;3.10;;;21.10;55.70;;;;;;5054935;28;20485;-70
2024/02/26 02:24:05;;;;;;;4.93;3.10;;;21.10;55.70;;;;;;5054810;28;20463;-69
2024/02/26 02:26:31;;;;;;;3.13;2.77;;;21.10;55.70;;;;;;5055034;28;20182;-69
2024/02/26 02:28:57;;;;;;;5.40;2.90;;;21.10;55.70;;;;;;5054921;28;20179;-69
2024/02/26 02:31:22;;;;;;;4.87;3.60;;;21.10;55.70;;;;;;5054725;28;20175;-69
2024/02/26 02:33:48;;;;;;;3.83;3.53;;;21.10;55.70;;;;;;5054893;28;20482;-69
2024/02/26 02:36:14;;;;;;;4.07;3.03;;;21.10;55.70;;;;;;5054748;28;20262;-69
2024/02/26 02:38:52;;;;;;;5.10;3.90;;;21.10;55.70;;;;;;5054324;28;20530;-69
2024/02/26 02:41:18;;;;;;;4.20;3.00;;;21.10;55.70;;;;;;5053557;28;20154;-70
2024/02/26 02:43:44;;;;;;;5.53;3.30;;;21.10;55.70;;;;;;5054663;28;20433;-69
2024/02/26 02:46:13;;;;;;;3.87;3.30;;;21.10;55.70;;;;;;5054450;28;21245;-70
2024/02/26 02:48:38;;;;;;;4.57;3.67;;;21.10;55.70;;;;;;5054375;28;20410;-70
2024/02/26 02:51:05;;;;;;;3.70;3.07;;;21.10;55.70;;;;;;5054474;28;20413;-70
2024/02/26 02:53:30;;;;;;;3.20;2.83;;;21.10;55.70;;;;;;5053954;28;20195;-68
2024/02/26 02:55:56;;;;;;;5.00;3.77;;;21.10;55.70;;;;;;5054037;28;20445;-70
2024/02/26 02:58:21;;;;;;;4.47;2.80;;;21.10;55.70;;;;;;5054372;28;20178;-68
2024/02/26 03:00:47;;;;;;;3.53;2.83;;;21.10;55.70;;;;;;5052752;28;20174;-70
2024/02/26 03:03:13;;;;;;;4.17;3.20;;;21.10;55.70;;;;;;5054151;28;20561;-69
2024/02/26 03:05:38;;;;;;;3.80;3.00;;;21.10;55.70;;;;;;5054572;28;20183;-70
2024/02/26 03:08:04;;;;;;;3.67;3.00;;;21.10;55.70;;;;;;5053742;28;20171;-69
2024/02/26 03:10:30;;;;;;;4.07;3.30;;;21.10;55.70;;;;;;5052441;28;20179;-70
2024/02/26 03:12:56;;;;;;;3.27;2.80;;;21.10;55.70;;;;;;5053924;28;20220;-69
2024/02/26 03:15:21;;;;;;;3.67;3.00;;;21.10;55.80;;;;;;5054011;28;20191;-69
2024/02/26 03:17:47;;;;;;;3.87;3.47;;;21.10;55.70;;;;;;5053469;28;20955;-70
2024/02/26 03:20:13;;;;;;;3.43;3.13;;;21.10;55.70;;;;;;5053766;28;20166;-69
2024/02/26 03:22:39;;;;;;;4.40;3.20;;;21.10;55.70;;;;;;5053907;28;20677;-70
2024/02/26 03:25:06;;;;;;;3.97;2.90;;;21.10;55.70;;;;;;5053736;28;20178;-70
2024/02/26 03:27:31;;;;;;;3.83;3.30;;;21.10;55.70;;;;;;5053790;28;20412;-70
2024/02/26 03:29:58;;;;;;;4.07;3.60;;;21.10;55.70;;;;;;5053943;28;20410;-70
2024/02/26 03:32:23;;;;;;;4.23;2.93;;;21.10;55.70;;;;;;5053843;28;20187;-69
2024/02/26 03:34:49;;;;;;;4.87;3.40;;;21.10;55.70;;;;;;5053548;28;20452;-69
2024/02/26 03:37:15;;;;;;;4.20;3.13;;;21.10;55.70;;;;;;5053570;28;20574;-70
2024/02/26 03:39:40;;;;;;;3.30;2.80;;;21.00;55.70;;;;;;5053517;28;20722;-70
2024/02/26 03:42:06;;;;;;;4.70;3.20;;;21.00;55.70;;;;;;5053358;28;20653;-68
2024/02/26 03:44:32;;;;;;;4.03;3.27;;;21.10;55.70;;;;;;5053705;28;20187;-70
2024/02/26 03:46:57;;;;;;;3.57;2.77;;;21.00;55.70;;;;;;5053407;28;20171;-69
2024/02/26 03:49:23;;;;;;;3.87;3.03;;;21.00;55.70;;;;;;5053410;28;20278;-69
2024/02/26 03:51:49;;;;;;;4.63;3.10;;;21.10;55.80;;;;;;5053354;28;20256;-70
2024/02/26 03:54:14;;;;;;;4.13;3.30;;;21.10;55.70;;;;;;5053336;28;20202;-70
2024/02/26 03:56:40;;;;;;;3.57;3.10;;;21.00;55.70;;;;;;5053070;28;20914;-68
2024/02/26 03:59:06;;;;;;;4.30;3.10;;;21.00;55.70;;;;;;5053128;28;20232;-69
2024/02/26 04:01:31;;;;;;;3.90;3.00;;;21.00;55.70;;;;;;5035151;28;20281;-69
2024/02/26 04:03:57;;;;;;;4.00;3.07;;;21.00;55.70;;;;;;5053041;28;20191;-70
2024/02/26 04:06:22;;;;;;;4.60;3.50;;;21.00;55.70;;;;;;5053058;28;20179;-69
2024/02/26 04:08:48;;;;;;;4.20;2.80;;;21.00;55.70;;;;;;5053215;28;20222;-70
2024/02/26 04:11:17;;;;;;;4.10;3.10;;;21.00;55.70;;;;;;5053153;28;20171;-70
2024/02/26 04:13:49;;;;;;;3.40;2.53;;;21.00;55.70;;;;;;5052733;28;20437;-70
2024/02/26 04:16:16;;;;;;;6.20;3.20;;;21.00;55.70;;;;;;5052549;28;20405;-70
2024/02/26 04:18:42;;;;;;;3.67;3.00;;;21.00;55.70;;;;;;5052633;28;20798;-69
2024/02/26 04:21:07;;;;;;;4.57;2.97;;;21.00;55.70;;;;;;5052550;28;20406;-70
2024/02/26 04:23:33;;;;;;;2.93;2.33;;;21.00;55.70;;;;;;5053206;28;20451;-69
2024/02/26 04:25:59;;;;;;;4.53;3.17;;;21.00;55.70;;;;;;5052782;28;20225;-69
2024/02/26 04:28:28;;;;;;;2.90;2.60;;;21.00;55.70;;;;;;5052708;28;20175;-70
2024/02/26 04:30:55;;;;;;;3.60;2.80;;;21.00;55.70;;;;;;5052565;28;20199;-70
2024/02/26 04:33:20;;;;;;;3.27;2.97;;;21.00;55.70;;;;;;5052634;28;20453;-70
2024/02/26 04:35:46;;;;;;;3.20;2.70;;;21.00;55.70;;;;;;5052344;28;20445;-69
2024/02/26 04:38:12;;;;;;;3.70;2.90;;;21.00;55.70;;;;;;5052226;28;20167;-70
2024/02/26 04:40:37;;;;;;;2.70;2.40;;;21.00;55.70;;;;;;5052517;28;20175;-70
2024/02/26 04:43:03;;;;;;;3.20;2.70;;;21.00;55.70;;;;;;5050821;28;20719;-69
2024/02/26 04:45:29;;;;;;;5.00;3.07;;;21.00;55.70;;;;;;5052332;28;20178;-69
2024/02/26 04:47:55;;;;;;;3.50;2.60;;;20.90;55.60;;;;;;5052489;28;20668;-71
2024/02/26 04:50:20;;;;;;;3.10;2.80;;;20.90;55.60;;;;;;5052160;28;20298;-69
2024/02/26 04:52:46;;;;;;;4.00;2.93;;;20.90;55.70;;;;;;5051825;28;20425;-70
2024/02/26 04:55:11;;;;;;;4.43;2.87;;;21.00;55.70;;;;;;5052166;28;20273;-70
2024/02/26 04:57:37;;;;;;;3.30;2.57;;;20.90;55.70;;;;;;5052052;28;20182;-70
2024/02/26 05:00:04;;;;;;;3.77;2.50;;;21.00;55.70;;;;;;5052092;28;20170;-69
2024/02/26 05:02:32;;;;;;;3.10;2.60;;;20.90;55.60;;;;;;5052115;28;20277;-70
2024/02/26 05:04:57;;;;;;;3.10;2.33;;;21.00;55.70;;;;;;5051603;28;20959;-70
2024/02/26 05:07:23;;;;;;;3.60;2.60;;;21.00;55.70;;;;;;5051748;28;20421;-68
2024/02/26 05:09:49;;;;;;;2.90;2.60;;;21.00;55.70;;;;;;5052206;28;20252;-69
2024/02/26 05:12:15;;;;;;;3.13;2.50;;;21.00;55.70;;;;;;5051667;28;20670;-70
2024/02/26 05:14:41;;;;;;;2.40;2.20;;;21.00;55.70;;;;;;5051231;28;20452;-70
2024/02/26 05:17:06;;;;;;;3.87;2.53;;;21.00;55.70;;;;;;5051649;28;20190;-69
2024/02/26 05:19:32;;;;;;;3.50;2.63;;;21.00;55.70;;;;;;5051601;28;20265;-69
2024/02/26 05:21:58;;;;;;;4.17;3.10;;;21.00;55.70;;;;;;5051643;28;20170;-69
2024/02/26 05:24:23;;;;;;;4.60;2.80;;;21.00;55.70;;;;;;5051630;28;20186;-69
2024/02/26 05:26:49;;;;;;;3.67;2.33;;;21.00;55.70;;;;;;5051769;28;20183;-69
2024/02/26 05:29:14;;;;;;;3.37;2.60;;;21.00;55.70;;;;;;5052129;28;20258;-69
2024/02/26 05:31:42;;;;;;;5.27;2.70;;;21.00;55.60;;;;;;5051665;28;20174;-70
2024/02/26 05:34:08;;;;;;;3.80;2.57;;;21.10;55.70;;;;;;5051408;28;20230;-69
2024/02/26 05:36:34;;;;;;;3.37;3.07;;;21.00;55.60;;;;;;5051644;28;20925;-70
2024/02/26 05:39:00;;;;;;;4.33;2.60;;;21.00;55.60;;;;;;5051393;28;20174;-69
2024/02/26 05:41:26;;;;;;;3.33;2.63;;;21.00;55.60;;;;;;5051344;28;20583;-70
2024/02/26 05:43:52;;;;;;;3.57;2.83;;;21.00;55.60;;;;;;5051380;28;20433;-70
2024/02/26 05:46:19;;;;;;;3.47;2.70;;;21.10;56.20;;;;;;5051564;28;20313;-70
2024/02/26 05:48:46;;;;;;;3.73;2.80;;;21.00;55.60;;;;;;5051298;28;20406;-69
2024/02/26 05:51:12;;;;;;;3.07;2.37;;;21.00;55.50;;;;;;5051496;28;20854;-69
2024/02/26 05:53:37;;;;;;;3.20;2.77;;;21.00;55.50;;;;;;5050986;28;20545;-68
2024/02/26 05:56:03;;;;;;;3.97;3.00;;;21.00;55.50;;;;;;5051455;28;20195;-70
2024/02/26 05:58:29;;;;;;;3.40;3.00;;;21.00;55.50;;;;;;5051219;28;20167;-70
2024/02/26 06:00:55;;;;;;;3.70;2.60;;;21.00;55.60;;;;;;5051123;28;20406;-70
2024/02/26 06:03:20;;;;;;;3.83;2.70;;;21.00;55.60;;;;;;5051338;28;20183;-69
2024/02/26 06:05:46;;;;;;;3.30;2.67;;;21.00;55.60;;;;;;5051478;28;20666;-67
2024/02/26 06:08:12;;;;;;;4.43;2.70;;;21.00;55.60;;;;;;5051030;28;20224;-69
2024/02/26 06:10:39;;;;;;;3.00;2.40;;;21.00;55.60;;;;;;5051309;28;20650;-69
2024/02/26 06:13:04;;;;;;;3.00;2.50;;;21.00;55.60;;;;;;5051175;28;20236;-67
2024/02/26 06:15:30;;;;;;;3.10;2.60;;;21.00;55.60;;;;;;5051218;28;20528;-68
2024/02/26 06:17:56;;;;;;;3.47;2.77;;;21.00;55.60;;;;;;5054318;28;20191;-68
2024/02/26 06:20:21;;;;;;;2.67;2.17;;;21.00;55.60;;;;;;5054648;28;20524;-69
2024/02/26 06:22:47;;;;;;;2.90;2.57;;;21.00;55.60;;;;;;5054657;28;20198;-68
2024/02/26 06:25:12;;;;;;;3.70;2.30;;;21.00;55.60;;;;;;5054864;28;20175;-67
2024/02/26 06:27:38;;;;;;;3.20;2.30;;;21.10;55.70;;;;;;5054252;28;20183;-68
2024/02/26 06:30:04;;;;;;;3.90;2.40;;;21.10;55.70;;;;;;5054492;28;20646;-69
2024/02/26 06:32:30;;;;;;;2.63;2.43;;;21.10;55.70;;;;;;5054392;28;20191;-68
2024/02/26 06:34:56;;;;;;;3.13;2.83;;;21.10;55.70;;;;;;5054448;28;20510;-68
2024/02/26 06:37:22;;;;;;;3.60;2.40;;;21.10;55.70;;;;;;5053148;28;20583;-69
2024/02/26 06:39:47;;;;;;;4.00;2.30;;;21.10;55.60;;;;;;5054540;28;20420;-68
2024/02/26 06:42:13;;;;;;;3.10;2.20;;;21.10;55.70;;;;;;5053947;28;20187;-69
2024/02/26 06:44:38;;;;;;;3.07;2.37;;;21.20;55.70;;;;;;5054192;28;20175;-69
2024/02/26 06:47:04;;;;;;;3.40;2.80;;;21.20;55.70;;;;;;5054607;28;20262;-68
2024/02/26 06:49:30;;;;;;;3.80;2.67;;;21.20;55.70;;;;;;5054613;28;20186;-69
2024/02/26 06:51:55;;;;;;;3.90;2.50;;;21.20;55.70;;;;;;5054662;28;20206;-67
2024/02/26 06:54:21;;;;;;;3.83;2.70;;;21.30;55.70;;;;;;5054147;28;20701;-69
2024/02/26 06:56:47;;;;;;;2.67;2.43;;;21.30;55.70;;;;;;5054179;28;20642;-68
2024/02/26 06:59:12;;;;;;;3.10;2.70;;;21.30;55.70;;;;;;5054475;28;20171;-68
2024/02/26 07:01:41;;;;;;;2.90;2.60;;;21.30;55.70;;;;;;5053106;28;20179;-68
2024/02/26 07:04:07;;;;;;;2.70;2.30;;;21.30;55.70;;;;;;5054493;28;20222;-69
2024/02/26 07:06:32;;;;;;;2.70;2.20;;;21.30;55.60;;;;;;5054187;28;20441;-67
2024/02/26 07:08:58;;;;;;;3.30;2.60;;;21.30;55.60;;;;;;5053830;28;20737;-68
2024/02/26 07:11:24;;;;;;;3.10;2.23;;;21.30;55.60;;;;;;5053395;28;20178;-69
2024/02/26 07:13:49;;;;;;;3.37;2.20;;;21.40;55.60;;;;;;5053776;28;20286;-69
2024/02/26 07:16:15;;;;;;;2.07;1.87;;;21.30;55.50;;;;;;5052619;28;20250;-69
2024/02/26 07:18:43;;;;;;;4.07;2.23;;;21.30;55.50;;;;;;5053590;28;20187;-69
2024/02/26 07:21:08;;;;;;;3.30;2.43;;;21.40;55.60;;;;;;5052220;28;20843;-68
2024/02/26 07:23:34;;;;;;;2.63;1.80;;;21.40;55.60;;;;;;5053588;28;20437;-68
2024/02/26 07:26:00;;;;;;;3.07;2.40;;;21.40;55.50;;;;;;5053381;28;20221;-69
2024/02/26 07:28:25;;;;;;;3.10;2.40;;;21.40;55.60;;;;;;5053289;28;20271;-67
2024/02/26 07:30:51;;;;;;;2.47;1.77;;;21.40;55.80;;;;;;5053480;28;20647;-69
2024/02/26 07:33:16;;;;;;;2.20;2.00;;;21.40;55.60;;;;;;5053640;28;20220;-69
2024/02/26 07:35:42;;;;;;;2.00;1.80;;;21.40;55.60;;;;;;5053378;28;20191;-68
2024/02/26 07:38:08;;;;;;;2.23;1.90;;;21.40;55.60;;;;;;5051982;28;20187;-69
2024/02/26 07:40:33;;;;;;;3.60;2.27;;;21.40;55.60;;;;;;5053406;28;20171;-67
2024/02/26 07:42:59;;;;;;;3.23;1.93;;;21.40;55.60;;;;;;5053282;28;20599;-66
2024/02/26 07:45:24;;;;;;;2.57;1.90;;;21.40;55.60;;;;;;5053389;28;20175;-69
2024/02/26 07:47:51;;;;;;;3.23;2.60;;;21.40;55.60;;;;;;5053559;28;20175;-69
2024/02/26 07:50:17;;;;;;;2.53;2.00;;;21.40;55.60;;;;;;5053224;28;20178;-67
2024/02/26 07:52:43;;;;;;;3.93;2.20;;;21.40;55.60;;;;;;5053178;28;20425;-68
2024/02/26 07:55:09;;;;;;;2.83;2.10;;;21.40;55.60;;;;;;5053175;28;20197;-70
2024/02/26 07:57:35;;;;;;;4.93;2.50;;;21.40;55.60;;;;;;5053296;28;20500;-68
2024/02/26 08:00:02;;;;;;;2.37;1.97;;;21.40;55.60;;;;;;5053147;28;20173;-69
2024/02/26 08:02:28;;;;;;;2.07;1.83;;;21.40;55.60;;;;;;5052816;28;20275;-69
2024/02/26 08:04:54;;;;;;;4.60;2.40;;;21.40;55.60;;;;;;5052868;28;20405;-68
2024/02/26 08:07:21;;;;;;;2.80;2.30;;;21.40;55.50;;;;;;5052864;28;20409;-69
2024/02/26 08:09:47;;;;;;;2.50;2.30;;;21.40;56.10;;;;;;5053109;28;20856;-68
2024/02/26 08:12:12;;;;;;;2.60;2.17;;;21.40;55.50;;;;;;5052719;28;20430;-69
2024/02/26 08:14:38;;;;;;;3.13;2.20;;;21.40;55.60;;;;;;5052746;28;20457;-68
2024/02/26 08:17:04;;;;;;;2.30;2.07;;;21.40;55.60;;;;;;5052418;28;20677;-69
2024/02/26 08:19:29;;;;;;;2.27;2.07;;;21.50;55.70;;;;;;5052609;28;20182;-67
2024/02/26 08:21:55;;;;;;;6.37;2.40;;;21.40;55.60;;;;;;5052638;28;20228;-69
2024/02/26 08:24:20;;;;;;;2.50;1.90;;;21.40;55.60;;;;;;5051230;28;20171;-68
2024/02/26 08:26:46;;;;;;;3.30;1.90;;;21.40;55.60;;;;;;5052265;28;20171;-69
2024/02/26 08:29:12;;;;;;;3.23;2.17;;;21.40;55.70;;;;;;5052288;28;20522;-68
2024/02/26 08:31:37;;;;;;;3.27;2.37;;;21.40;55.60;;;;;;5052201;28;20175;-69
2024/02/26 08:34:06;;;;;;;2.33;2.10;;;21.40;55.60;;;;;;5051895;28;20183;-69
2024/02/26 08:36:33;;;;;;;3.23;2.27;;;21.50;55.70;;;;;;5051955;28;20195;-69
2024/02/26 08:38:59;;;;;;;2.90;2.00;;;21.40;55.70;;;;;;5051519;28;20467;-68
2024/02/26 08:41:25;;;;;;;2.67;2.10;;;21.40;55.70;;;;;;5052592;28;20811;-69
2024/02/26 08:43:50;;;;;;;3.27;2.07;;;21.40;55.70;;;;;;5052182;28;20205;-67
2024/02/26 08:46:16;;;;;;;2.40;2.20;;;21.40;55.70;;;;;;5052340;28;20654;-68
2024/02/26 08:48:42;;;;;;;3.30;2.50;;;21.40;55.70;;;;;;5052136;28;20174;-68
2024/02/26 08:51:08;;;;;;;3.37;2.30;;;21.40;55.70;;;;;;5051898;28;20179;-68
2024/02/26 08:53:35;;;;;;;3.30;2.53;;;21.40;55.70;;;;;;5052040;28;20205;-68
2024/02/26 08:56:00;;;;;;;2.83;1.93;;;21.40;56.30;;;;;;5051971;28;20991;-69
2024/02/26 08:58:28;;;;;;;2.53;2.33;;;21.40;55.70;;;;;;5052170;28;20413;-68
2024/02/26 09:00:54;;;;;;;3.03;2.10;;;21.40;55.70;;;;;;5051909;28;20413;-68
2024/02/26 09:03:19;;;;;;;4.50;2.40;;;21.40;55.70;;;;;;5051616;28;20440;-69
2024/02/26 09:05:45;;;;;;;3.80;2.40;;;21.40;55.80;;;;;;5051277;28;20980;-69
2024/02/26 09:08:11;;;;;;;2.33;2.13;;;21.40;55.80;;;;;;5051624;28;20179;-69
2024/02/26 09:10:36;;;;;;;2.23;1.90;;;21.40;55.80;;;;;;5051284;28;20664;-69
2024/02/26 09:13:02;;;;;;;4.07;2.30;;;21.40;55.80;;;;;;5051407;28;20692;-66
2024/02/26 09:15:28;;;;;;;2.50;2.10;;;21.40;55.80;;;;;;5051587;28;20201;-69
2024/02/26 09:17:53;;;;;;;2.03;1.80;;;21.40;55.80;;;;;;5051174;28;20198;-69
2024/02/26 09:20:20;;;;;;;2.53;2.00;;;21.40;55.80;;;;;;5051825;28;20304;-68
2024/02/26 09:22:47;;;;;;;2.90;2.20;;;21.40;55.80;;;;;;5051537;28;20190;-69
2024/02/26 09:25:13;;;;;;;3.53;2.30;;;21.40;55.90;;;;;;5051561;28;20414;-69
2024/02/26 09:27:38;;;;;;;2.23;2.00;;;21.40;55.80;;;;;;5051389;28;20955;-67
2024/02/26 09:30:04;;;;;;;3.50;2.17;;;21.40;55.80;;;;;;5051154;28;20531;-68
2024/02/26 09:32:30;;;;;;;2.00;1.80;;;21.40;55.80;;;;;;5051366;28;20685;-69
2024/02/26 09:34:56;;;;;;;2.90;1.90;;;21.40;55.90;;;;;;5051725;28;20449;-68
2024/02/26 09:37:22;;;;;;;2.90;1.80;;;21.40;56.40;;;;;;5051981;28;20167;-69
2024/02/26 09:39:47;;;;;;;2.53;2.00;;;21.40;55.90;;;;;;5051445;28;20523;-68
2024/02/26 09:42:13;;;;;;;2.60;1.93;;;21.40;55.90;;;;;;5051564;28;20226;-68
2024/02/26 09:44:41;;;;;;;2.40;2.20;;;21.40;55.90;;;;;;5050321;28;20191;-69
2024/02/26 09:47:10;;;;;;;3.57;2.23;;;21.40;55.90;;;;;;5051495;28;20240;-68
2024/02/26 09:49:36;;;;;;;2.57;2.00;;;21.40;55.90;;;;;;5052185;28;20456;-68
2024/02/26 09:52:04;;;;;;;3.17;2.40;;;21.40;55.90;;;;;;5055247;28;20504;-67
2024/02/26 09:54:31;;;;;;;3.57;2.27;;;21.40;55.90;;;;;;5055718;28;20481;-65
2024/02/26 09:57:00;;;;;;;2.20;1.70;;;21.40;55.90;;;;;;5055250;28;20413;-68
2024/02/26 09:59:27;;;;;;;2.53;2.33;;;21.40;55.90;;;;;;5053142;28;21257;-69
2024/02/26 10:01:54;;;;;;;3.70;2.30;;;21.40;55.90;;;;;;5054422;28;20528;-68
2024/02/26 10:04:21;;;;;;;2.83;2.03;;;21.40;55.90;;;;;;5054484;28;21005;-69
2024/02/26 10:06:47;;;;;;;2.43;2.20;;;21.40;55.90;;;;;;5054343;28;20410;-69
2024/02/26 10:09:15;;;;;;;2.97;1.80;;;21.40;55.90;;;;;;5054330;28;20516;-66
2024/02/26 10:11:43;;;;;;;2.20;2.00;;;21.40;55.90;;;;;;5054361;28;20421;-69
2024/02/26 10:14:08;;;;;;;2.73;1.90;;;21.40;55.90;;;;;;5053805;28;20456;-67
2024/02/26 10:16:35;;;;;;;2.57;2.23;;;21.40;55.90;;;;;;5054289;28;20413;-69
2024/02/26 10:19:00;;;;;;;2.10;1.80;;;21.40;55.90;;;;;;5053922;28;20205;-69
2024/02/26 10:21:26;;;;;;;2.53;2.30;;;21.40;55.90;;;;;;5054102;28;20401;-69
2024/02/26 10:23:54;;;;;;;2.90;2.10;;;21.40;55.90;;;;;;5054241;28;20640;-69
2024/02/26 10:26:20;;;;;;;2.30;1.90;;;21.40;55.90;;;;;;5053944;28;20845;-67
2024/02/26 10:28:46;;;;;;;2.60;2.00;;;21.40;55.90;;;;;;5053935;28;20497;-69
2024/02/26 10:31:14;;;;;;;2.70;2.10;;;21.40;55.90;;;;;;5054055;28;20496;-68
2024/02/26 10:33:42;;;;;;;1.60;1.50;;;21.40;55.90;;;;;;5053799;28;20429;-68
2024/02/26 10:36:08;;;;;;;3.10;2.10;;;21.40;55.90;;;;;;5053674;28;20532;-67
2024/02/26 10:38:35;;;;;;;1.70;1.53;;;21.40;56.00;;;;;;5053334;28;21004;-68
2024/02/26 10:41:12;;;;;;;2.87;2.53;;;21.40;56.00;;;;;;5054101;28;20421;-69
2024/02/26 10:43:38;;;;;;;3.20;2.33;;;21.40;56.00;;;;;;5053531;28;20441;-68
2024/02/26 10:46:03;;;;;;;3.03;1.53;;;21.40;56.00;;;;;;5053634;28;20463;-69
2024/02/26 10:48:29;;;;;;;2.60;2.00;;;21.40;56.00;;;;;;5053481;28;20281;-69
2024/02/26 10:50:57;;;;;;;2.40;1.83;;;21.40;56.00;;;;;;5054005;28;20185;-69
2024/02/26 10:53:23;;;;;;;3.10;2.07;;;21.40;56.00;;;;;;5053449;28;20636;-68
2024/02/26 10:55:57;;;;;;;3.40;2.13;;;21.40;56.10;;;;;;5053415;28;20854;-68
2024/02/26 10:58:24;;;;;;;2.53;1.57;;;21.40;56.10;;;;;;5053613;28;20402;-69
2024/02/26 11:00:51;;;;;;;3.93;2.50;;;21.40;56.10;;;;;;5052879;28;20414;-67
2024/02/26 11:03:19;;;;;;;2.40;1.73;;;21.40;56.10;;;;;;5051791;28;20851;-68
2024/02/26 11:05:49;;;;;;;2.60;1.90;;;21.40;56.10;;;;;;5053367;28;20447;-69
2024/02/26 11:08:18;;;;;;;2.80;2.00;;;21.40;56.10;;;;;;5053540;28;20430;-68
2024/02/26 11:10:48;;;;;;;2.17;1.90;;;21.40;56.10;;;;;;5053447;28;20482;-68
2024/02/26 11:13:16;;;;;;;2.27;2.07;;;21.40;56.10;;;;;;5053063;28;20438;-69
2024/02/26 11:15:44;;;;;;;2.17;1.90;;;21.40;56.20;;;;;;5053111;28;20535;-68
2024/02/26 11:18:11;;;;;;;2.53;2.00;;;21.40;56.10;;;;;;5051682;28;20460;-66
2024/02/26 11:20:40;;;;;;;2.30;2.00;;;21.40;56.10;;;;;;5053126;28;20413;-68
2024/02/26 11:23:07;;;;;;;3.13;1.90;;;21.40;56.10;;;;;;5052995;28;20444;-68
2024/02/26 11:25:32;;;;;;;4.57;2.40;;;21.40;56.20;;;;;;5053190;28;20448;-69
2024/02/26 11:28:05;;;;;;;2.97;1.93;;;21.40;56.20;;;;;;5052954;28;20916;-69
2024/02/26 11:30:35;;;;;;;2.10;1.70;;;21.40;56.20;;;;;;5052710;28;20654;-68
2024/02/26 11:33:01;;;;;;;3.20;2.27;;;21.40;56.20;;;;;;5052772;28;20425;-69
2024/02/26 11:35:29;;;;;;;2.37;2.17;;;21.40;56.20;;;;;;5052880;28;20464;-68
2024/02/26 11:37:56;;;;;;;2.97;2.37;;;21.40;56.20;;;;;;5053257;28;20194;-69
2024/02/26 11:40:25;;;;;;;3.73;2.13;;;21.40;56.20;;;;;;5052594;28;20417;-69
2024/02/26 11:42:53;;;;;;;3.33;2.23;;;21.40;56.20;;;;;;5052677;28;20433;-68
2024/02/26 11:45:41;;;;;;;3.53;2.43;;;21.40;56.20;;;;;;5052753;28;20413;-68
2024/02/26 11:48:19;;;;;;;1.63;1.53;;;21.40;56.20;;;;;;5052379;28;20509;-68
2024/02/26 11:50:50;;;;;;;3.53;1.97;;;21.40;56.20;;;;;;5052439;28;20404;-68
2024/02/26 11:53:25;;;;;;;2.73;2.03;;;21.40;56.20;;;;;;5052518;28;20505;-69
2024/02/26 11:56:29;;;;;;;2.93;2.10;;;21.40;56.20;;;;;;5052401;28;20452;-69
2024/02/26 11:59:09;;;;;;;2.27;1.97;;;21.40;56.20;;;;;;5052308;28;20500;-69
2024/02/26 12:01:47;;;;;;;3.70;2.50;;;21.40;56.20;;;;;;5052426;28;20396;-69
2024/02/26 12:04:16;;;;;;;2.67;2.10;;;21.30;56.10;;;;;;5052873;28;20791;-69
2024/02/26 12:06:53;;;;;;;2.53;2.33;;;21.40;56.20;;;;;;5052494;28;20416;-67
2024/02/26 12:09:51;;;;;;;3.70;2.77;;;21.30;56.20;;;;;;5052170;28;20760;-68
2024/02/26 12:12:19;;;;;;;3.70;3.10;;;21.40;56.20;;;;;;5040216;28;20829;-69
2024/02/26 12:14:52;;;;;;;3.43;2.83;;;21.30;56.20;;;;;;5051534;28;20842;-69
2024/02/26 12:17:24;;;;;;;4.53;3.07;;;21.40;56.20;;;;;;5052289;28;20445;-68
2024/02/26 12:19:51;;;;;;;3.43;2.57;;;21.30;56.20;;;;;;5051005;28;20947;-67
2024/02/26 12:22:17;;;;;;;5.37;2.87;;;21.40;56.20;;;;;;5052460;28;20889;-67
2024/02/26 12:24:46;;;;;;;4.47;2.60;;;21.30;56.20;;;;;;5047613;28;20500;-68
2024/02/26 12:27:12;;;;;;;4.77;4.00;;;21.40;56.20;;;;;;5040331;28;20215;-68
2024/02/26 12:29:37;;;;;;;4.50;3.30;;;21.40;56.20;;;;;;5041239;28;20456;-69
2024/02/26 12:32:07;;;;;;;6.37;3.33;;;21.40;56.20;;;;;;5040935;28;20254;-68
2024/02/26 12:34:33;;;;;;;4.23;3.30;;;21.40;56.20;;;;;;5040805;28;20626;-68
2024/02/26 12:36:58;;;;;;;5.87;3.10;;;21.40;56.20;;;;;;5042987;28;20551;-69
2024/02/26 12:39:24;;;;;;;5.60;3.17;;;21.40;56.20;;;;;;5042309;28;20414;-68
2024/02/26 12:41:50;;;;;;;5.03;3.70;;;21.40;56.20;;;;;;5037109;28;20187;-69
2024/02/26 12:44:25;;;;;;;8.53;3.63;;;21.40;56.20;;;;;;5031918;28;20426;-68